createdAt,value
2019-05-12T00:02:15.284Z,7.18
2019-05-12T00:04:48.831Z,7.29
2019-05-12T00:07:20.843Z,7.20
2019-05-12T00:09:52.011Z,6.99
2019-05-12T00:12:23.771Z,7.10
2019-05-12T00:14:54.948Z,7.10
2019-05-12T00:17:28.328Z,7.04
2019-05-12T00:19:59.536Z,7.09
2019-05-12T00:22:38.166Z,6.87
2019-05-12T00:25:10.115Z,6.75
2019-05-12T00:27:48.883Z,6.69
2019-05-12T00:30:40.033Z,6.68
2019-05-12T00:33:11.307Z,6.55
2019-05-12T00:35:43.131Z,6.52
2019-05-12T00:38:14.967Z,6.51
2019-05-12T00:40:47.949Z,6.32
2019-05-12T00:43:19.873Z,6.26
2019-05-12T00:45:51.736Z,6.29
2019-05-12T00:48:23.632Z,6.33
2019-05-12T00:50:55.744Z,6.50
2019-05-12T00:53:37.251Z,6.55
2019-05-12T00:56:00.495Z,6.47
2019-05-12T00:58:31.636Z,6.53
2019-05-12T01:01:04.371Z,6.48
2019-05-12T01:03:38.207Z,6.55
2019-05-12T01:06:09.787Z,6.52
2019-05-12T01:08:41.668Z,6.60
2019-05-12T01:11:13.573Z,6.67
2019-05-12T01:13:45.499Z,6.75
2019-05-12T01:16:18.413Z,6.62
2019-05-12T01:18:50.401Z,6.72
2019-05-12T01:21:22.284Z,6.69
2019-05-12T01:24:00.511Z,6.71
2019-05-12T01:26:28.471Z,6.74
2019-05-12T01:28:59.705Z,6.70
2019-05-12T01:31:33.867Z,6.75
2019-05-12T01:34:05.030Z,6.75
2019-05-12T01:36:38.101Z,6.73
2019-05-12T01:39:09.486Z,6.63
2019-05-12T01:41:41.307Z,6.69
2019-05-12T01:44:12.487Z,6.77
2019-05-12T01:46:44.399Z,6.76
2019-05-12T01:49:15.737Z,6.89
2019-05-12T01:51:47.721Z,6.91
2019-05-12T01:54:19.652Z,6.95
2019-05-12T01:56:51.452Z,7.02
2019-05-12T01:59:23.325Z,6.97
2019-05-12T02:01:55.175Z,7.09
2019-05-12T02:04:28.797Z,7.10
2019-05-12T02:07:02.688Z,7.13
2019-05-12T02:09:35.539Z,7.23
2019-05-12T02:12:08.252Z,7.10
2019-05-12T02:14:40.286Z,7.20
2019-05-12T02:17:12.163Z,7.08
2019-05-12T02:19:43.468Z,7.25
2019-05-12T02:22:15.333Z,7.18
2019-05-12T02:24:47.899Z,7.27
2019-05-12T02:27:19.726Z,7.21
2019-05-12T02:29:50.945Z,7.29
2019-05-12T02:32:25.288Z,7.19
2019-05-12T02:34:56.349Z,7.36
2019-05-12T02:37:28.263Z,7.29
2019-05-12T02:40:00.173Z,7.32
2019-05-12T02:42:34.878Z,7.33
2019-05-12T02:45:06.647Z,7.36
2019-05-12T02:47:38.799Z,7.40
2019-05-12T02:50:14.370Z,7.40
2019-05-12T02:52:45.121Z,7.48
2019-05-12T02:55:17.092Z,7.49
2019-05-12T02:57:50.668Z,7.41
2019-05-12T03:00:24.234Z,7.33
2019-05-12T03:02:58.372Z,7.48
2019-05-12T03:05:31.173Z,7.49
2019-05-12T03:08:05.398Z,7.35
2019-05-12T03:10:37.722Z,7.33
2019-05-12T03:13:09.554Z,7.28
2019-05-12T03:15:44.387Z,7.29
2019-05-12T03:18:15.064Z,7.32
2019-05-12T03:20:46.250Z,7.27
2019-05-12T03:23:19.195Z,7.45
2019-05-12T03:25:54.433Z,7.36
2019-05-12T03:28:25.724Z,7.33
2019-05-12T03:30:58.235Z,7.37
2019-05-12T03:33:40.600Z,7.33
2019-05-12T03:36:08.454Z,7.37
2019-05-12T03:38:36.855Z,7.35
2019-05-12T03:41:08.878Z,7.40
2019-05-12T03:43:40.821Z,7.60
2019-05-12T03:46:15.230Z,7.49
2019-05-12T03:48:45.752Z,7.49
2019-05-12T03:51:16.905Z,7.57
2019-05-12T03:53:48.854Z,7.64
2019-05-12T03:56:20.834Z,7.67
2019-05-12T03:58:54.078Z,7.68
2019-05-12T04:01:26.083Z,7.76
2019-05-12T04:03:58.085Z,7.85
2019-05-12T04:06:30.092Z,7.98
2019-05-12T04:09:04.760Z,7.95
2019-05-12T04:11:35.841Z,7.95
2019-05-12T04:14:08.435Z,8.00
2019-05-12T04:16:40.288Z,8.03
2019-05-12T04:19:14.698Z,8.03
2019-05-12T04:21:45.917Z,8.04
2019-05-12T04:24:17.862Z,8.09
2019-05-12T04:26:49.756Z,8.13
2019-05-12T04:29:24.854Z,8.13
2019-05-12T04:31:55.217Z,8.19
2019-05-12T04:34:27.106Z,8.21
2019-05-12T04:36:59.033Z,8.27
2019-05-12T04:39:30.877Z,8.35
2019-05-12T04:42:05.255Z,8.46
2019-05-12T04:44:35.865Z,8.52
2019-05-12T04:47:07.765Z,8.61
2019-05-12T04:49:41.504Z,8.72
2019-05-12T04:52:15.549Z,8.86
2019-05-12T04:54:47.032Z,8.93
2019-05-12T04:57:21.079Z,9.06
2019-05-12T04:59:54.326Z,8.94
2019-05-12T05:02:26.335Z,8.87
2019-05-12T05:05:00.645Z,8.94
2019-05-12T05:07:35.628Z,9.03
2019-05-12T05:10:07.127Z,9.08
2019-05-12T05:12:39.050Z,9.05
2019-05-12T05:15:14.338Z,9.15
2019-05-12T05:17:44.954Z,9.19
2019-05-12T05:20:16.853Z,9.17
2019-05-12T05:22:48.741Z,9.18
2019-05-12T05:25:20.617Z,9.24
2019-05-12T05:27:53.338Z,9.21
2019-05-12T05:30:24.634Z,9.20
2019-05-12T05:32:55.765Z,9.18
2019-05-12T05:35:28.975Z,9.16
2019-05-12T05:38:01.282Z,9.20
2019-05-12T05:40:35.286Z,9.09
2019-05-12T05:43:18.689Z,9.20
2019-05-12T05:45:40.299Z,9.21
2019-05-12T05:48:13.651Z,9.27
2019-05-12T05:50:48.432Z,9.31
2019-05-12T05:53:20.394Z,9.33
2019-05-12T05:55:56.261Z,9.43
2019-05-12T05:58:28.674Z,9.48
2019-05-12T06:01:03.728Z,9.56
2019-05-12T06:03:35.195Z,9.56
2019-05-12T06:06:12.216Z,9.59
2019-05-12T06:08:39.519Z,9.66
2019-05-12T06:11:14.820Z,9.67
2019-05-12T06:13:44.992Z,9.76
2019-05-12T06:16:20.726Z,9.87
2019-05-12T06:18:50.601Z,9.95
2019-05-12T06:21:24.187Z,9.98
2019-05-12T06:23:55.471Z,10.13
2019-05-12T06:26:32.620Z,10.21
2019-05-12T06:29:00.888Z,10.32
2019-05-12T06:31:33.526Z,10.51
2019-05-12T06:34:18.615Z,10.64
2019-05-12T06:36:41.326Z,10.80
2019-05-12T06:39:18.985Z,10.89
2019-05-12T06:41:46.353Z,11.02
2019-05-12T06:44:19.521Z,11.18
2019-05-12T06:47:10.684Z,11.41
2019-05-12T06:49:37.863Z,11.52
2019-05-12T06:52:14.337Z,11.41
2019-05-12T06:54:51.254Z,11.40
2019-05-12T06:57:27.863Z,11.45
2019-05-12T06:59:55.153Z,11.79
2019-05-12T07:03:28.420Z,11.64
2019-05-12T07:05:55.246Z,11.66
2019-05-12T07:08:44.954Z,11.96
2019-05-12T07:11:18.255Z,11.91
2019-05-12T07:14:02.188Z,12.12
2019-05-12T07:19:40.706Z,12.46
2019-05-12T07:22:44.292Z,12.29
2019-05-12T07:25:13.533Z,12.33
2019-05-12T07:27:53.654Z,12.35
2019-05-12T07:30:31.864Z,12.70
2019-05-12T07:33:04.609Z,12.94
2019-05-12T07:35:40.758Z,12.78
2019-05-12T07:38:21.042Z,12.68
2019-05-12T07:40:53.571Z,12.59
2019-05-12T07:43:29.177Z,12.45
2019-05-12T07:46:06.814Z,12.40
2019-05-12T07:48:35.020Z,12.50
2019-05-12T07:51:07.032Z,12.74
2019-05-12T07:53:38.870Z,12.94
2019-05-12T07:56:19.507Z,13.05
2019-05-12T07:58:54.220Z,13.31
2019-05-12T08:01:24.014Z,13.40
2019-05-12T08:03:59.983Z,13.03
2019-05-12T08:06:34.735Z,13.48
2019-05-12T08:09:05.830Z,13.60
2019-05-12T08:11:39.025Z,13.79
2019-05-12T08:14:13.783Z,13.91
2019-05-12T08:16:45.020Z,13.36
2019-05-12T08:19:23.906Z,13.85
2019-05-12T08:21:51.100Z,13.89
2019-05-12T08:24:23.856Z,13.70
2019-05-12T08:26:59.543Z,13.71
2019-05-12T08:29:30.279Z,13.69
2019-05-12T08:32:03.802Z,14.02
2019-05-12T08:34:35.895Z,14.68
2019-05-12T08:37:18.535Z,14.75
2019-05-12T08:39:53.404Z,14.49
2019-05-12T08:42:24.659Z,14.42
2019-05-12T08:44:56.017Z,14.78
2019-05-12T08:47:35.489Z,14.82
2019-05-12T08:50:06.547Z,15.20
2019-05-12T08:52:41.992Z,14.75
2019-05-12T08:55:16.852Z,14.49
2019-05-12T08:57:49.713Z,14.64
2019-05-12T09:00:39.409Z,14.76
2019-05-12T09:03:10.744Z,14.81
2019-05-12T09:05:57.378Z,14.72
2019-05-12T09:08:29.901Z,14.11
2019-05-12T09:11:03.821Z,14.25
2019-05-12T09:13:35.508Z,14.59
2019-05-12T09:16:09.778Z,14.82
2019-05-12T09:18:47.674Z,14.43
2019-05-12T09:21:31.920Z,14.50
2019-05-12T09:24:04.335Z,14.59
2019-05-12T09:26:38.294Z,14.42
2019-05-12T09:29:14.143Z,14.48
2019-05-12T09:31:50.602Z,14.69
2019-05-12T09:34:27.023Z,14.50
2019-05-12T09:37:03.843Z,14.58
2019-05-12T09:39:42.802Z,14.06
2019-05-12T09:42:14.102Z,13.98
2019-05-12T09:44:48.667Z,13.82
2019-05-12T09:47:27.542Z,14.19
2019-05-12T09:50:09.593Z,14.30
2019-05-12T09:52:54.983Z,14.77
2019-05-12T09:55:26.135Z,14.88
2019-05-12T09:57:58.171Z,14.19
2019-05-12T10:00:35.908Z,14.73
2019-05-12T10:03:08.343Z,15.06
2019-05-12T10:05:41.189Z,15.40
2019-05-12T10:08:13.830Z,15.31
2019-05-12T10:10:47.168Z,14.90
2019-05-12T10:13:20.264Z,14.65
2019-05-12T10:15:53.580Z,14.32
2019-05-12T10:18:25.840Z,14.15
2019-05-12T10:20:58.265Z,14.25
2019-05-12T10:23:29.863Z,14.20
2019-05-12T10:26:09.481Z,14.20
2019-05-12T10:28:36.060Z,14.40
2019-05-12T10:31:10.760Z,14.25
2019-05-12T10:33:43.368Z,14.15
2019-05-12T10:36:15.726Z,14.18
2019-05-12T10:38:47.003Z,14.32
2019-05-12T10:41:19.905Z,14.08
2019-05-12T10:43:56.017Z,14.41
2019-05-12T10:46:28.600Z,14.43
2019-05-12T10:48:59.206Z,14.39
2019-05-12T10:51:31.183Z,14.26
2019-05-12T10:54:12.093Z,14.39
2019-05-12T10:56:36.699Z,14.36
2019-05-12T10:59:07.903Z,14.53
2019-05-12T11:01:47.250Z,14.20
2019-05-12T11:04:14.280Z,14.11
2019-05-12T11:06:48.499Z,14.10
2019-05-12T11:09:21.234Z,13.85
2019-05-12T11:11:54.015Z,13.69
2019-05-12T11:14:30.274Z,13.64
2019-05-12T11:17:02.143Z,13.95
2019-05-12T11:19:34.818Z,13.78
2019-05-12T11:22:06.693Z,13.80
2019-05-12T11:24:38.512Z,13.90
2019-05-12T11:27:13.314Z,14.14
2019-05-12T11:29:49.096Z,14.22
2019-05-12T11:32:17.961Z,14.38
2019-05-12T11:34:50.734Z,14.18
2019-05-12T11:37:23.506Z,14.18
2019-05-12T11:39:55.358Z,14.34
2019-05-12T11:42:27.442Z,14.44
2019-05-12T11:45:08.155Z,14.51
2019-05-12T11:47:41.702Z,14.29
2019-05-12T11:50:14.071Z,14.51
2019-05-12T11:52:50.567Z,14.36
2019-05-12T11:55:29.843Z,14.29
2019-05-12T11:58:00.475Z,14.09
2019-05-12T12:00:39.154Z,14.33
2019-05-12T12:03:13.001Z,14.33
2019-05-12T12:05:44.689Z,14.26
2019-05-12T12:08:19.706Z,14.37
2019-05-12T12:10:59.735Z,14.18
2019-05-12T12:13:33.561Z,14.51
2019-05-12T12:16:06.942Z,14.70
2019-05-12T12:18:46.680Z,14.91
2019-05-12T12:21:19.524Z,14.96
2019-05-12T12:23:53.713Z,14.85
2019-05-12T12:26:30.168Z,15.10
2019-05-12T12:28:59.779Z,15.42
2019-05-12T12:31:48.691Z,15.55
2019-05-12T12:34:25.493Z,15.77
2019-05-12T12:36:58.098Z,15.80
2019-05-12T12:39:29.967Z,16.01
2019-05-12T12:42:06.997Z,15.94
2019-05-12T12:44:38.472Z,15.82
2019-05-12T12:47:17.162Z,15.81
2019-05-12T12:49:49.491Z,15.97
2019-05-12T12:52:24.389Z,15.94
2019-05-12T12:55:05.315Z,15.87
2019-05-12T12:57:33.649Z,15.70
2019-05-12T13:00:31.840Z,15.65
2019-05-12T13:02:55.758Z,15.58
2019-05-12T13:05:29.519Z,15.56
2019-05-12T13:08:04.254Z,15.58
2019-05-12T13:10:40.510Z,15.62
2019-05-12T13:13:10.505Z,15.43
2019-05-12T13:15:44.420Z,15.73
2019-05-12T13:18:24.051Z,15.71
2019-05-12T13:20:54.094Z,15.68
2019-05-12T13:23:40.510Z,15.72
2019-05-12T13:26:08.128Z,15.74
2019-05-12T13:28:39.349Z,15.64
2019-05-12T13:51:55.213Z,15.54
2019-05-12T13:54:29.963Z,15.70
2019-05-12T13:57:03.872Z,16.04
2019-05-12T13:59:35.421Z,15.90
2019-05-12T14:02:07.505Z,15.96
2019-05-12T14:04:39.990Z,16.02
2019-05-12T14:07:17.704Z,16.04
2019-05-12T14:09:45.617Z,15.99
2019-05-12T14:12:17.970Z,16.23
2019-05-12T14:14:49.933Z,16.32
2019-05-12T14:17:23.525Z,16.31
2019-05-12T14:19:55.585Z,16.19
2019-05-12T14:22:27.766Z,16.25
2019-05-12T14:25:02.195Z,16.29
2019-05-12T14:27:33.534Z,16.43
2019-05-12T14:30:10.380Z,16.39
2019-05-12T14:32:40.974Z,16.14
2019-05-12T14:35:13.067Z,16.40
2019-05-12T14:37:45.795Z,16.49
2019-05-12T14:40:21.362Z,16.59
2019-05-12T14:42:54.323Z,16.63
2019-05-12T14:45:29.912Z,16.48
2019-05-12T14:47:59.989Z,16.49
2019-05-12T14:50:33.674Z,16.51
2019-05-12T14:53:05.607Z,16.58
2019-05-12T14:55:38.504Z,16.67
2019-05-12T14:58:17.669Z,16.48
2019-05-12T15:00:44.705Z,16.78
2019-05-12T15:03:16.694Z,16.59
2019-05-12T15:05:48.973Z,16.59
2019-05-12T15:08:21.494Z,16.29
2019-05-12T15:10:54.512Z,16.34
2019-05-12T15:13:26.820Z,16.11
2019-05-12T15:16:00.160Z,16.22
2019-05-12T15:18:32.277Z,16.31
2019-05-12T15:21:04.218Z,16.37
2019-05-12T15:23:37.613Z,16.33
2019-05-12T15:26:14.934Z,16.38
2019-05-12T15:28:43.594Z,16.71
2019-05-12T15:31:15.548Z,16.68
2019-05-12T15:33:47.473Z,16.63
2019-05-12T15:36:19.794Z,16.60
2019-05-12T15:38:55.746Z,16.46
2019-05-12T15:41:25.703Z,16.71
2019-05-12T15:43:58.264Z,16.82
2019-05-12T15:46:33.027Z,16.82
2019-05-12T15:49:04.322Z,16.74
2019-05-12T15:51:39.020Z,16.53
2019-05-12T15:54:11.622Z,16.58
2019-05-12T15:56:43.096Z,16.45
2019-05-12T15:59:17.415Z,16.61
2019-05-12T16:01:48.198Z,16.50
2019-05-12T16:04:20.162Z,16.64
2019-05-12T16:06:57.148Z,16.78
2019-05-12T16:09:26.201Z,16.75
2019-05-12T16:11:58.408Z,16.76
2019-05-12T16:14:30.542Z,16.59
2019-05-12T16:17:06.568Z,16.73
2019-05-12T16:19:39.232Z,16.82
2019-05-12T16:22:10.576Z,16.80
2019-05-12T16:24:43.522Z,16.55
2019-05-12T16:27:15.813Z,16.53
2019-05-12T16:29:50.031Z,16.42
2019-05-12T16:32:26.798Z,16.52
2019-05-12T16:34:55.165Z,16.30
2019-05-12T16:37:31.306Z,16.49
2019-05-12T16:40:00.857Z,16.26
2019-05-12T16:42:33.714Z,16.25
2019-05-12T16:45:09.797Z,16.07
2019-05-12T16:47:38.990Z,16.33
2019-05-12T16:50:15.162Z,16.14
2019-05-12T16:52:45.504Z,16.45
2019-05-12T16:55:16.670Z,16.37
2019-05-12T16:57:52.771Z,16.16
2019-05-12T17:00:24.253Z,16.43
2019-05-12T17:02:58.055Z,16.42
2019-05-12T17:05:30.082Z,16.60
2019-05-12T17:08:04.180Z,16.51
2019-05-12T17:10:38.512Z,16.42
2019-05-12T17:13:13.332Z,16.20
2019-05-12T17:15:43.404Z,16.08
2019-05-12T17:18:17.504Z,15.98
2019-05-12T17:20:51.101Z,16.13
2019-05-12T17:23:24.670Z,15.61
2019-05-12T17:25:57.064Z,15.56
2019-05-12T17:28:29.081Z,15.34
2019-05-12T17:31:03.675Z,15.34
2019-05-12T17:33:35.444Z,15.36
2019-05-12T17:36:12.033Z,15.33
2019-05-12T17:38:40.414Z,15.28
2019-05-12T17:41:15.422Z,15.24
2019-05-12T17:43:52.032Z,15.07
2019-05-12T17:46:18.440Z,15.06
2019-05-12T17:48:50.028Z,15.16
2019-05-12T17:51:26.727Z,14.86
2019-05-12T17:53:56.001Z,14.79
2019-05-12T17:56:34.218Z,14.75
2019-05-12T17:59:04.331Z,14.61
2019-05-12T18:01:36.686Z,14.52
2019-05-12T18:04:09.011Z,14.62
2019-05-12T18:06:41.220Z,14.34
2019-05-12T18:09:15.790Z,14.30
2019-05-12T18:11:46.087Z,14.26
2019-05-12T18:14:19.121Z,14.16
2019-05-12T18:16:53.685Z,13.99
2019-05-12T18:19:24.613Z,13.86
2019-05-12T18:22:03.257Z,13.82
2019-05-12T18:24:29.830Z,13.64
2019-05-12T18:27:05.032Z,13.60
2019-05-12T18:29:34.040Z,13.49
2019-05-12T18:32:08.300Z,13.39
2019-05-12T18:34:39.130Z,13.48
2019-05-12T18:37:13.435Z,13.28
2019-05-12T18:39:44.457Z,13.16
2019-05-12T18:42:15.743Z,13.12
2019-05-12T18:44:46.920Z,12.91
2019-05-12T18:47:23.436Z,12.82
2019-05-12T18:49:53.819Z,12.80
2019-05-12T18:52:29.359Z,12.68
2019-05-12T18:54:58.066Z,12.59
2019-05-12T18:57:30.031Z,12.62
2019-05-12T19:00:04.907Z,12.61
2019-05-12T19:02:36.063Z,12.59
2019-05-12T19:05:12.858Z,12.46
2019-05-12T19:07:43.884Z,12.39
2019-05-12T19:10:16.439Z,12.46
2019-05-12T19:12:51.694Z,12.35
2019-05-12T19:15:22.102Z,12.31
2019-05-12T19:17:54.372Z,12.26
2019-05-12T19:20:26.347Z,12.21
2019-05-12T19:23:00.207Z,12.16
2019-05-12T19:25:35.788Z,12.07
2019-05-12T19:28:10.380Z,12.00
2019-05-12T19:30:40.527Z,12.03
2019-05-12T19:33:13.632Z,12.09
2019-05-12T19:35:50.362Z,11.97
2019-05-12T19:38:19.556Z,11.96
2019-05-12T19:40:56.323Z,11.96
2019-05-12T19:43:25.282Z,11.92
2019-05-12T19:46:03.210Z,11.96
2019-05-12T19:48:35.170Z,12.05
2019-05-12T19:51:20.334Z,12.17
2019-05-12T19:53:38.564Z,12.02
2019-05-12T19:56:09.925Z,11.84
2019-05-12T19:58:43.822Z,11.85
2019-05-12T20:01:15.711Z,11.82
2019-05-12T20:03:50.109Z,11.75
2019-05-12T20:06:20.534Z,11.78
2019-05-12T20:08:55.797Z,11.65
2019-05-12T20:11:29.380Z,11.69
2019-05-12T20:13:58.250Z,11.59
2019-05-12T20:16:30.686Z,11.56
2019-05-12T20:19:04.287Z,11.44
2019-05-12T20:21:35.786Z,11.47
2019-05-12T20:24:07.020Z,11.59
2019-05-12T20:26:40.163Z,11.44
2019-05-12T20:29:13.682Z,11.42
2019-05-12T20:31:50.931Z,11.40
2019-05-12T20:34:24.471Z,11.40
2019-05-12T20:36:59.079Z,11.30
2019-05-12T20:39:28.186Z,11.31
2019-05-12T20:42:01.240Z,11.25
2019-05-12T20:44:34.456Z,11.20
2019-05-12T20:47:06.848Z,11.16
2019-05-12T20:49:42.909Z,11.15
2019-05-12T20:52:14.454Z,11.18
2019-05-12T20:54:49.238Z,11.16
2019-05-12T20:57:23.615Z,11.28
2019-05-12T20:59:58.234Z,11.07
2019-05-12T21:02:27.964Z,11.15
2019-05-12T21:05:01.316Z,11.07
2019-05-12T21:07:33.852Z,11.01
2019-05-12T21:10:06.269Z,10.96
2019-05-12T21:12:40.173Z,10.95
2019-05-12T21:15:17.392Z,10.88
2019-05-12T21:17:52.146Z,10.89
2019-05-12T21:20:19.131Z,10.96
2019-05-12T21:22:51.067Z,10.91
2019-05-12T21:25:23.383Z,10.79
2019-05-12T21:28:02.539Z,10.69
2019-05-12T21:30:29.046Z,10.77
2019-05-12T21:33:01.578Z,10.77
2019-05-12T21:35:40.871Z,10.92
2019-05-12T21:38:07.153Z,10.88
2019-05-12T21:40:40.017Z,10.98
2019-05-12T21:43:13.571Z,10.94
2019-05-12T21:45:45.601Z,10.77
2019-05-12T21:48:23.621Z,10.85
2019-05-12T21:50:49.842Z,10.74
2019-05-12T21:53:23.671Z,10.64
2019-05-12T21:56:03.828Z,10.64
2019-05-12T21:58:28.057Z,10.71
2019-05-12T22:01:07.410Z,10.72
2019-05-12T22:03:37.846Z,10.52
2019-05-12T22:06:19.110Z,10.53
2019-05-12T22:08:44.240Z,10.47
2019-05-12T22:11:16.273Z,10.38
2019-05-12T22:13:58.175Z,10.28
2019-05-12T22:16:23.590Z,10.33
2019-05-12T22:18:59.297Z,10.39
2019-05-12T22:21:29.104Z,10.38
2019-05-12T22:24:01.002Z,10.35
2019-05-12T22:26:39.691Z,10.09
2019-05-12T22:29:05.887Z,10.06
2019-05-12T22:31:38.776Z,9.99
2019-05-12T22:34:11.237Z,9.94
2019-05-12T22:36:45.519Z,10.00
2019-05-12T22:39:17.042Z,9.83
2019-05-12T22:41:48.858Z,9.75
2019-05-12T22:44:22.268Z,9.82
2019-05-12T22:46:54.353Z,9.99
2019-05-12T22:49:26.299Z,9.82
2019-05-12T22:52:02.706Z,9.79
2019-05-12T22:54:33.566Z,9.72
2019-05-12T22:57:04.578Z,9.61
2019-05-12T22:59:40.475Z,9.65
2019-05-12T23:02:09.949Z,9.61
2019-05-12T23:04:43.883Z,9.52
2019-05-12T23:07:19.047Z,9.48
2019-05-12T23:09:49.020Z,9.52
2019-05-12T23:12:20.921Z,9.49
2019-05-12T23:14:55.371Z,9.52
2019-05-12T23:17:25.626Z,9.42
2019-05-12T23:19:57.427Z,9.46
2019-05-12T23:22:34.916Z,9.40
2019-05-12T23:25:03.933Z,9.24
2019-05-12T23:27:35.262Z,9.28
2019-05-12T23:30:11.191Z,9.37
2019-05-12T23:32:42.956Z,9.39
2019-05-12T23:35:15.124Z,9.39
2019-05-12T23:37:47.037Z,9.37
2019-05-12T23:40:18.186Z,9.25
2019-05-12T23:42:50.000Z,9.23
2019-05-12T23:45:24.217Z,9.17
2019-05-12T23:47:55.348Z,9.21
2019-05-12T23:50:27.130Z,9.15
2019-05-12T23:52:59.044Z,9.05
2019-05-12T23:55:30.921Z,9.00
2019-05-12T23:58:04.206Z,9.04
